Time;durP1;ratioP1;P1;durP2;ratioP2;P2;SDS_P1;SDS_P2;PMS_P1;PMS_P2;Temp;Humidity;BMP_temperature;BMP_pressure;BME280_temperature;BME280_humidity;BME280_pressure;Samples;Min_cycle;Max_cycle;Signal;HPM_P1;HPM_P2
2023/02/05 00:00:39;;;;;;;9.05;4.50;;;0.00;99.90;;;;;;5011811;28;20052;-73
2023/02/05 00:03:06;;;;;;;11.20;4.30;;;-0.10;99.90;;;;;;5010200;28;20050;-72
2023/02/05 00:05:33;;;;;;;8.25;4.47;;;0.00;99.90;;;;;;5013035;28;20052;-72
2023/02/05 00:08:00;;;;;;;9.93;3.90;;;0.10;99.90;;;;;;5031986;28;20107;-72
2023/02/05 00:10:26;;;;;;;9.30;4.78;;;0.20;99.90;;;;;;5037598;28;20400;-73
2023/02/05 00:12:52;;;;;;;8.48;4.50;;;0.10;99.90;;;;;;5020578;28;20061;-73
2023/02/05 00:15:18;;;;;;;10.18;4.60;;;0.00;99.90;;;;;;5024901;28;20111;-73
2023/02/05 00:17:47;;;;;;;9.23;4.88;;;0.00;99.90;;;;;;5024106;28;20102;-73
2023/02/05 00:20:13;;;;;;;6.57;4.25;;;0.00;99.90;;;;;;5010407;28;20041;-73
2023/02/05 00:22:43;;;;;;;9.38;4.22;;;-0.10;99.90;;;;;;5009380;28;20046;-73
2023/02/05 00:25:08;;;;;;;10.38;4.43;;;0.00;99.90;;;;;;5038102;28;20068;-73
2023/02/05 00:27:35;;;;;;;10.50;4.70;;;-0.10;99.90;;;;;;4984874;28;20150;-73
2023/02/05 00:30:02;;;;;;;8.43;4.30;;;0.00;99.90;;;;;;5007699;28;20049;-73
2023/02/05 00:32:29;;;;;;;8.68;3.95;;;0.10;99.90;;;;;;5005142;28;20378;-72
2023/02/05 00:34:55;;;;;;;15.35;4.63;;;-0.10;99.90;;;;;;5015984;28;20069;-72
2023/02/05 00:37:22;;;;;;;8.07;4.28;;;-0.10;99.90;;;;;;5024806;28;20080;-73
2023/02/05 00:39:48;;;;;;;11.93;4.88;;;-0.20;99.90;;;;;;5014171;28;20061;-72
2023/02/05 00:42:14;;;;;;;8.80;3.88;;;-0.30;99.90;;;;;;5025468;28;20049;-72
2023/02/05 00:44:40;;;;;;;7.85;4.85;;;-0.40;99.90;;;;;;5021806;28;20045;-73
2023/02/05 00:47:06;;;;;;;8.00;4.50;;;-0.40;99.90;;;;;;5009422;28;20038;-73
2023/02/05 00:49:32;;;;;;;9.13;4.68;;;-0.60;99.90;;;;;;5002265;28;20088;-72
2023/02/05 00:51:58;;;;;;;10.38;4.72;;;-0.60;99.90;;;;;;5004080;28;20512;-73
2023/02/05 00:54:24;;;;;;;8.10;4.28;;;-0.40;99.90;;;;;;5007099;28;20050;-72
2023/02/05 00:56:50;;;;;;;7.45;4.43;;;-0.40;99.90;;;;;;5017537;28;20050;-73
2023/02/05 00:59:15;;;;;;;7.03;4.25;;;-0.40;99.90;;;;;;5017004;28;20049;-73
2023/02/05 01:01:41;;;;;;;8.57;4.45;;;-0.60;99.90;;;;;;5038063;28;20080;-72
2023/02/05 01:04:07;;;;;;;7.82;3.90;;;-0.70;99.90;;;;;;4970187;28;20530;-73
2023/02/05 01:06:33;;;;;;;8.27;3.80;;;-0.80;99.90;;;;;;5007854;28;20050;-73
2023/02/05 01:08:59;;;;;;;7.75;3.65;;;-0.70;99.90;;;;;;5027413;28;20049;-73
2023/02/05 01:11:25;;;;;;;6.40;4.13;;;-0.50;99.90;;;;;;5022635;28;20060;-73
2023/02/05 01:13:50;;;;;;;6.65;3.40;;;-0.50;99.90;;;;;;5008868;28;20381;-72
2023/02/05 01:16:16;;;;;;;6.35;3.40;;;-0.40;99.90;;;;;;4993525;28;20049;-73
2023/02/05 01:18:42;;;;;;;6.65;3.30;;;-0.50;99.90;;;;;;4988409;28;20073;-72
2023/02/05 01:21:08;;;;;;;5.88;3.20;;;-0.60;99.90;;;;;;4987797;28;20041;-72
2023/02/05 01:23:33;;;;;;;9.90;3.92;;;-0.50;99.90;;;;;;5002809;28;20588;-72
2023/02/05 01:25:59;;;;;;;6.28;3.42;;;-0.50;99.90;;;;;;5019432;28;20041;-72
2023/02/05 01:28:25;;;;;;;6.82;3.53;;;-0.40;99.90;;;;;;5012953;28;20046;-72
2023/02/05 01:30:51;;;;;;;7.45;3.33;;;-0.30;99.90;;;;;;5018224;28;20053;-72
2023/02/05 01:33:17;;;;;;;7.47;3.70;;;-0.30;99.90;;;;;;5020093;28;20785;-73
2023/02/05 01:35:43;;;;;;;9.05;3.70;;;-0.40;99.90;;;;;;5002635;28;20050;-73
2023/02/05 01:38:10;;;;;;;7.07;3.55;;;-0.40;99.90;;;;;;5018808;28;20037;-72
2023/02/05 01:40:36;;;;;;;7.75;3.65;;;-0.30;99.90;;;;;;4996643;28;20084;-73
2023/02/05 01:43:02;;;;;;;8.98;3.72;;;-0.20;99.90;;;;;;5007300;28;20065;-74
2023/02/05 01:45:37;;;;;;;5.65;3.22;;;-0.20;99.90;;;;;;5023064;28;20041;-74
2023/02/05 01:48:03;;;;;;;7.50;3.40;;;-0.10;99.90;;;;;;5004959;28;20041;-73
2023/02/05 01:50:41;;;;;;;6.50;3.30;;;-0.20;99.90;;;;;;5013043;28;20077;-73
2023/02/05 01:53:09;;;;;;;7.53;3.85;;;-0.10;99.90;;;;;;4993961;28;20069;-73
2023/02/05 01:55:58;;;;;;;6.68;3.65;;;-0.20;99.90;;;;;;5014228;28;20482;-73
2023/02/05 01:58:32;;;;;;;7.32;3.97;;;-0.10;99.90;;;;;;5002643;28;20534;-73
2023/02/05 02:00:58;;;;;;;7.28;3.95;;;0.00;99.90;;;;;;5009647;28;20052;-73
2023/02/05 02:03:26;;;;;;;7.60;3.40;;;0.00;99.90;;;;;;5011025;28;20045;-73
2023/02/05 02:05:53;;;;;;;9.60;4.00;;;-0.10;99.90;;;;;;5027486;28;20050;-73
2023/02/05 02:08:19;;;;;;;7.72;3.55;;;0.00;99.90;;;;;;5021430;28;20050;-73
2023/02/05 02:10:45;;;;;;;6.00;3.17;;;0.00;99.90;;;;;;5012228;28;20386;-73
2023/02/05 02:13:11;;;;;;;8.43;3.63;;;0.00;99.90;;;;;;5012861;28;20061;-73
2023/02/05 02:15:37;;;;;;;10.68;3.78;;;-0.20;99.90;;;;;;5024407;28;20056;-73
2023/02/05 02:20:50;;;;;;;6.40;3.75;;;-0.10;99.90;;;;;;5023069;28;20056;-73
2023/02/05 02:23:26;;;;;;;7.18;3.70;;;0.10;99.90;;;;;;5003300;28;20084;-73
2023/02/05 02:26:00;;;;;;;9.85;3.70;;;0.00;99.90;;;;;;4996092;28;20045;-73
2023/02/05 02:28:48;;;;;;;9.98;3.83;;;0.00;99.90;;;;;;5011838;28;20828;-72
2023/02/05 02:31:38;;;;;;;8.20;3.80;;;0.00;99.90;;;;;;5005449;28;20053;-73
2023/02/05 02:34:26;;;;;;;7.70;4.18;;;0.10;99.90;;;;;;5017735;28;20041;-73
2023/02/05 02:37:11;;;;;;;;;;;0.10;99.90;;;;;;5040146;28;20061;-74
2023/02/05 02:39:39;;;;;;;9.45;4.72;;;0.00;99.90;;;;;;5032052;28;20900;-75
2023/02/05 02:42:12;;;;;;;8.00;4.25;;;0.20;99.90;;;;;;5028394;28;20049;-75
2023/02/05 02:44:52;;;;;;;7.40;4.00;;;0.10;99.90;;;;;;5017935;28;20068;-73
2023/02/05 02:47:20;;;;;;;7.05;4.05;;;0.10;99.90;;;;;;5021693;28;20134;-72
2023/02/05 02:50:01;;;;;;;8.57;4.25;;;0.20;99.90;;;;;;5009956;28;20071;-72
2023/02/05 02:52:46;;;;;;;7.55;4.00;;;0.20;99.90;;;;;;5015383;28;20059;-72
2023/02/05 02:55:14;;;;;;;10.05;4.15;;;0.10;99.90;;;;;;5006452;28;20052;-72
2023/02/05 02:57:41;;;;;;;9.10;4.15;;;0.00;99.90;;;;;;5008154;28;20094;-74
2023/02/05 03:00:18;;;;;;;9.10;4.07;;;-0.10;99.90;;;;;;5012972;28;20679;-72
2023/02/05 03:02:44;;;;;;;6.25;3.78;;;-0.10;99.90;;;;;;5045901;28;20045;-73
2023/02/05 03:05:20;;;;;;;6.20;3.50;;;-0.10;99.90;;;;;;5022328;28;20045;-73
2023/02/05 03:08:26;;;;;;;7.47;3.60;;;-0.10;99.90;;;;;;5017893;28;20045;-73
2023/02/05 03:11:11;;;;;;;7.75;3.88;;;0.00;99.90;;;;;;4986002;28;20042;-73
2023/02/05 03:13:50;;;;;;;11.48;4.07;;;0.00;99.90;;;;;;5028142;28;20584;-73
2023/02/05 03:16:16;;;;;;;7.28;3.75;;;-0.20;99.90;;;;;;5018218;28;20529;-73
2023/02/05 03:18:41;;;;;;;6.63;3.75;;;-0.20;99.90;;;;;;4991365;28;20037;-73
2023/02/05 03:21:19;;;;;;;7.10;4.00;;;-0.30;99.90;;;;;;5039195;28;20052;-73
2023/02/05 03:23:45;;;;;;;;;;;-0.30;99.90;;;;;;4991011;28;20366;-73
2023/02/05 03:26:33;;;;;;;5.97;3.85;;;-0.30;99.90;;;;;;5040121;28;19916;-72
2023/02/05 03:29:02;;;;;;;6.32;3.92;;;-0.40;99.90;;;;;;5025559;28;20052;-73
2023/02/05 03:31:34;;;;;;;9.70;4.95;;;-0.40;99.90;;;;;;4991230;28;20041;-72
2023/02/05 03:34:07;;;;;;;8.55;4.18;;;-0.40;99.90;;;;;;5059287;28;20045;-72
2023/02/05 03:36:43;;;;;;;10.75;4.35;;;-0.40;99.90;;;;;;5008547;28;20049;-71
2023/02/05 03:39:08;;;;;;;8.20;4.50;;;-0.40;99.90;;;;;;5017041;28;20601;-71
2023/02/05 03:41:56;;;;;;;9.10;4.32;;;-0.30;99.90;;;;;;5048505;28;20195;-72
2023/02/05 03:44:40;;;;;;;;;;;-0.30;99.90;;;;;;5021503;28;20359;-72
2023/02/05 03:47:12;;;;;;;11.52;4.07;;;-0.30;99.90;;;;;;5024397;28;19917;-72
2023/02/05 03:49:41;;;;;;;10.35;4.63;;;-0.40;99.90;;;;;;5023170;28;20096;-72
2023/02/05 03:52:11;;;;;;;;;;;-0.40;99.90;;;;;;5014433;28;20049;-72
2023/02/05 03:54:46;;;;;;;9.60;4.43;;;-0.40;99.90;;;;;;5059311;28;19913;-72
2023/02/05 03:57:27;;;;;;;9.65;4.75;;;-0.40;99.90;;;;;;5055055;28;20057;-72
2023/02/05 03:59:53;;;;;;;8.32;4.40;;;-0.20;99.90;;;;;;5014284;28;20041;-74
2023/02/05 04:02:19;;;;;;;8.70;4.43;;;-0.40;99.90;;;;;;5010726;28;20056;-74
2023/02/05 04:04:44;;;;;;;8.98;4.03;;;-0.50;99.90;;;;;;5001187;28;20052;-74
2023/02/05 04:07:10;;;;;;;12.55;4.82;;;-0.30;99.90;;;;;;5020013;28;20266;-74
2023/02/05 04:09:36;;;;;;;8.05;3.75;;;-0.30;99.90;;;;;;5002530;28;20066;-74
2023/02/05 04:12:02;;;;;;;8.38;3.90;;;-0.30;99.90;;;;;;5023421;28;20140;-74
2023/02/05 04:14:28;;;;;;;9.35;3.60;;;-0.30;99.90;;;;;;5009743;28;20045;-73
2023/02/05 04:16:53;;;;;;;7.05;3.88;;;-0.40;99.90;;;;;;5017039;28;20077;-72
2023/02/05 04:19:19;;;;;;;8.32;3.90;;;-0.30;99.90;;;;;;5004287;28;20730;-75
2023/02/05 04:21:45;;;;;;;6.38;4.05;;;-0.20;99.90;;;;;;5029383;28;20124;-75
2023/02/05 04:24:11;;;;;;;7.68;3.80;;;-0.20;99.90;;;;;;5021842;28;20038;-74
2023/02/05 04:26:40;;;;;;;9.90;3.85;;;-0.20;99.90;;;;;;5004263;28;20041;-73
2023/02/05 04:29:05;;;;;;;9.77;4.25;;;-0.30;99.90;;;;;;5025342;28;20382;-74
2023/02/05 04:31:31;;;;;;;6.93;3.30;;;-0.30;99.90;;;;;;5015938;28;20046;-74
2023/02/05 04:33:57;;;;;;;9.65;3.72;;;-0.40;99.90;;;;;;5026873;28;20049;-74
2023/02/05 04:36:23;;;;;;;7.38;3.88;;;-0.30;99.90;;;;;;4989852;28;20057;-73
2023/02/05 04:38:49;;;;;;;8.45;3.60;;;-0.20;99.90;;;;;;5015691;28;20386;-73
2023/02/05 04:41:14;;;;;;;8.35;3.50;;;-0.20;99.90;;;;;;5062231;28;20127;-72
2023/02/05 04:43:41;;;;;;;8.57;3.53;;;-0.20;99.90;;;;;;5012640;28;20048;-72
2023/02/05 04:46:08;;;;;;;5.63;3.60;;;-0.30;99.90;;;;;;5005690;28;20045;-72
2023/02/05 04:48:35;;;;;;;5.88;3.53;;;-0.20;99.90;;;;;;5022976;28;20058;-73
2023/02/05 04:51:09;;;;;;;5.95;3.50;;;-0.30;99.90;;;;;;5003827;28;20088;-73
2023/02/05 04:53:34;;;;;;;7.53;4.20;;;-0.40;99.90;;;;;;5021874;28;20129;-75
2023/02/05 04:56:14;;;;;;;6.07;3.60;;;-0.50;99.90;;;;;;5015221;28;20443;-75
2023/02/05 04:58:40;;;;;;;9.23;4.05;;;-0.50;99.90;;;;;;4990685;28;20046;-74
2023/02/05 05:01:11;;;;;;;5.28;3.45;;;-0.50;99.90;;;;;;4990610;28;20037;-73
2023/02/05 05:03:37;;;;;;;8.80;3.47;;;-0.60;99.90;;;;;;5018720;28;20042;-72
2023/02/05 05:06:03;;;;;;;6.45;3.53;;;-0.60;99.90;;;;;;5013917;28;20046;-72
2023/02/05 05:08:29;;;;;;;7.28;3.78;;;-0.50;99.90;;;;;;5008164;28;20521;-74
2023/02/05 05:10:55;;;;;;;7.28;4.10;;;-0.60;99.90;;;;;;5019414;28;20049;-74
2023/02/05 05:13:21;;;;;;;6.78;3.65;;;-0.60;99.90;;;;;;5026844;28;20119;-72
2023/02/05 05:15:53;;;;;;;10.23;4.13;;;-0.50;99.90;;;;;;5013400;28;20049;-72
2023/02/05 05:18:19;;;;;;;8.57;4.30;;;-0.40;99.90;;;;;;5047225;28;20037;-73
2023/02/05 05:20:45;;;;;;;8.68;3.78;;;-0.40;99.90;;;;;;5033688;28;20064;-74
2023/02/05 05:23:11;;;;;;;9.43;4.25;;;-0.50;99.90;;;;;;5024811;28;20052;-74
2023/02/05 05:25:43;;;;;;;8.68;4.07;;;-0.40;99.90;;;;;;5058817;28;20056;-74
2023/02/05 05:28:11;;;;;;;9.02;3.53;;;-0.40;99.90;;;;;;5025258;28;20350;-74
2023/02/05 05:30:41;;;;;;;9.55;4.18;;;-0.40;99.90;;;;;;5001333;28;20356;-74
2023/02/05 05:33:07;;;;;;;6.43;4.28;;;-0.40;99.90;;;;;;5010443;28;20104;-72
2023/02/05 05:35:32;;;;;;;8.43;4.07;;;-0.50;99.90;;;;;;5010084;28;20069;-72
2023/02/05 05:37:58;;;;;;;7.35;3.80;;;-0.50;99.90;;;;;;5014860;28;20046;-73
2023/02/05 05:45:57;;;;;;;7.00;3.80;;;-0.30;99.90;;;;;;5027008;28;20041;-73
2023/02/05 05:48:23;;;;;;;6.43;3.70;;;-0.30;99.90;;;;;;5049970;28;20041;-72
2023/02/05 05:50:49;;;;;;;7.57;4.28;;;-0.30;99.90;;;;;;5022003;28;20072;-73
2023/02/05 05:53:16;;;;;;;8.25;4.00;;;-0.20;99.90;;;;;;5064078;28;20048;-73
2023/02/05 05:55:41;;;;;;;6.97;3.88;;;-0.40;99.90;;;;;;5010768;28;20068;-73
2023/02/05 05:58:08;;;;;;;6.85;3.90;;;-0.40;99.90;;;;;;5023074;28;20042;-73
2023/02/05 06:00:36;;;;;;;11.73;4.07;;;-0.40;99.90;;;;;;4996037;28;20046;-72
2023/02/05 06:03:01;;;;;;;8.35;4.18;;;-0.30;99.90;;;;;;5047178;28;20132;-73
2023/02/05 06:05:27;;;;;;;7.22;4.20;;;-0.30;99.90;;;;;;5026677;28;20132;-73
2023/02/05 06:07:53;;;;;;;10.30;3.75;;;-0.20;99.90;;;;;;5017075;28;20096;-72
2023/02/05 06:10:19;;;;;;;8.23;3.67;;;-0.20;99.90;;;;;;5043584;28;20049;-72
2023/02/05 06:12:45;;;;;;;14.02;4.55;;;-0.20;99.90;;;;;;5022420;28;20132;-72
2023/02/05 06:15:10;;;;;;;7.60;3.88;;;-0.10;99.90;;;;;;5024639;28;20071;-72
2023/02/05 06:17:36;;;;;;;11.32;4.20;;;-0.10;99.90;;;;;;5028151;28;20123;-72
2023/02/05 06:20:03;;;;;;;6.28;3.90;;;-0.10;99.90;;;;;;5027554;28;20052;-72
2023/02/05 06:22:29;;;;;;;9.27;4.65;;;-0.10;99.90;;;;;;5005264;28;20125;-73
2023/02/05 06:24:54;;;;;;;7.10;3.67;;;-0.10;99.90;;;;;;5007954;28;20137;-73
2023/02/05 06:27:20;;;;;;;7.75;3.88;;;-0.10;99.90;;;;;;5018029;28;20078;-72
2023/02/05 06:29:46;;;;;;;7.97;4.03;;;0.00;99.90;;;;;;4998470;28;20373;-72
2023/02/05 06:32:12;;;;;;;6.50;3.75;;;0.00;99.90;;;;;;5027479;28;20654;-73
2023/02/05 06:34:37;;;;;;;8.35;3.67;;;0.00;99.90;;;;;;4997318;28;20494;-73
2023/02/05 06:37:03;;;;;;;8.07;3.47;;;0.00;99.90;;;;;;5024771;28;20046;-74
2023/02/05 06:39:29;;;;;;;7.85;3.70;;;0.00;99.90;;;;;;5016111;28;20461;-73
2023/02/05 06:41:55;;;;;;;7.32;3.70;;;0.10;99.90;;;;;;5012277;28;20053;-72
2023/02/05 06:44:20;;;;;;;7.60;3.58;;;0.10;99.90;;;;;;5009511;28;20296;-73
2023/02/05 06:46:46;;;;;;;7.22;3.42;;;0.10;99.90;;;;;;5016398;28;20045;-73
2023/02/05 06:49:12;;;;;;;9.93;3.55;;;0.20;99.90;;;;;;5030800;28;20481;-71
2023/02/05 06:51:38;;;;;;;6.68;3.10;;;0.30;99.90;;;;;;5015702;28;20115;-71
2023/02/05 06:54:03;;;;;;;5.63;2.75;;;0.40;99.90;;;;;;5002093;28;20049;-72
2023/02/05 06:56:29;;;;;;;5.68;3.05;;;0.40;99.90;;;;;;4992854;28;20056;-73
2023/02/05 06:58:55;;;;;;;6.82;2.80;;;0.50;99.90;;;;;;5030715;28;20041;-73
2023/02/05 07:01:20;;;;;;;6.95;2.83;;;0.50;99.90;;;;;;5012849;28;20050;-73
2023/02/05 07:03:47;;;;;;;5.68;3.00;;;0.50;99.90;;;;;;5063252;28;20076;-73
2023/02/05 07:06:13;;;;;;;5.07;2.88;;;0.60;99.90;;;;;;5009018;28;20099;-74
2023/02/05 07:08:38;;;;;;;5.00;2.75;;;0.60;99.90;;;;;;5025860;28;20435;-71
2023/02/05 07:11:04;;;;;;;7.20;2.53;;;0.60;99.90;;;;;;5035454;28;20056;-72
2023/02/05 07:13:30;;;;;;;5.35;2.70;;;0.60;99.90;;;;;;5002467;28;20092;-72
2023/02/05 07:15:56;;;;;;;5.90;3.28;;;0.70;99.90;;;;;;4999036;28;20421;-72
2023/02/05 07:18:23;;;;;;;6.50;3.28;;;0.60;99.90;;;;;;4981756;28;20490;-73
2023/02/05 07:20:48;;;;;;;6.43;2.72;;;0.50;99.90;;;;;;5031968;28;20045;-72
2023/02/05 07:23:14;;;;;;;6.30;3.33;;;0.60;99.90;;;;;;5063869;28;20055;-74
2023/02/05 07:25:40;;;;;;;7.10;3.28;;;0.60;99.90;;;;;;5013185;28;20602;-74
2023/02/05 07:28:06;;;;;;;7.50;3.22;;;0.50;99.90;;;;;;5004880;28;20499;-73
2023/02/05 07:30:33;;;;;;;5.15;3.03;;;0.60;99.90;;;;;;5029484;28;20567;-74
2023/02/05 07:33:00;;;;;;;7.05;3.60;;;0.60;99.90;;;;;;5032260;28;20430;-74
2023/02/05 07:35:26;;;;;;;5.93;2.75;;;0.60;99.90;;;;;;5025430;28;20138;-75
2023/02/05 07:37:51;;;;;;;9.18;2.90;;;0.60;99.90;;;;;;5000354;28;20501;-75
2023/02/05 07:40:17;;;;;;;6.60;3.15;;;0.80;99.90;;;;;;5003343;28;20138;-75
2023/02/05 07:42:43;;;;;;;5.18;2.42;;;0.90;99.90;;;;;;5021325;28;20042;-75
2023/02/05 07:45:09;;;;;;;6.07;3.03;;;0.90;99.90;;;;;;5033278;28;20033;-76
2023/02/05 07:47:35;;;;;;;7.30;3.17;;;1.00;99.90;;;;;;5033011;28;20046;-76
2023/02/05 07:50:01;;;;;;;5.30;2.50;;;1.00;99.90;;;;;;5026502;28;20055;-74
2023/02/05 07:52:26;;;;;;;6.10;2.88;;;0.90;99.90;;;;;;5020595;28;20041;-76
2023/02/05 07:54:52;;;;;;;7.35;3.10;;;0.90;99.90;;;;;;4998405;28;20128;-75
2023/02/05 07:57:18;;;;;;;6.65;3.08;;;1.00;99.90;;;;;;5013003;28;20045;-76
2023/02/05 07:59:44;;;;;;;7.13;3.20;;;1.00;99.90;;;;;;5021569;28;20048;-76
2023/02/05 08:02:10;;;;;;;5.53;2.90;;;1.10;99.90;;;;;;5015373;28;20037;-75
2023/02/05 08:04:36;;;;;;;9.70;2.85;;;1.00;99.90;;;;;;5007909;28;20119;-75
2023/02/05 08:07:02;;;;;;;6.68;2.78;;;1.10;99.90;;;;;;5026086;28;20195;-75
2023/02/05 08:09:27;;;;;;;8.73;2.80;;;1.10;99.90;;;;;;5030545;28;20082;-75
2023/02/05 08:11:53;;;;;;;5.20;2.88;;;1.20;99.90;;;;;;5003706;28;20045;-74
2023/02/05 08:14:19;;;;;;;6.85;3.55;;;1.20;99.90;;;;;;5025136;28;20148;-74
2023/02/05 08:16:45;;;;;;;9.43;4.13;;;1.20;99.90;;;;;;5022232;28;20106;-74
2023/02/05 08:19:14;;;;;;;9.25;3.88;;;1.20;99.90;;;;;;4992339;28;20128;-75
2023/02/05 08:21:40;;;;;;;6.45;3.83;;;1.20;99.90;;;;;;5011998;28;20050;-74
2023/02/05 08:24:06;;;;;;;7.82;4.00;;;1.20;99.90;;;;;;5058450;28;20056;-74
2023/02/05 08:26:32;;;;;;;8.23;3.58;;;1.30;99.90;;;;;;5019494;28;20086;-74
2023/02/05 08:28:58;;;;;;;8.52;4.03;;;1.20;99.90;;;;;;4999693;28;20041;-74
2023/02/05 08:31:24;;;;;;;7.32;3.20;;;1.30;99.90;;;;;;5003759;28;20053;-75
2023/02/05 08:33:53;;;;;;;10.23;4.07;;;1.40;99.90;;;;;;5024370;28;20045;-74
2023/02/05 08:36:20;;;;;;;8.85;4.05;;;1.40;99.90;;;;;;5010902;28;20041;-75
2023/02/05 08:38:48;;;;;;;8.68;4.25;;;1.30;99.90;;;;;;5008148;28;20045;-73
2023/02/05 08:41:15;;;;;;;8.55;4.30;;;1.40;99.90;;;;;;5018805;28;20038;-73
2023/02/05 08:43:42;;;;;;;8.23;4.55;;;1.50;99.90;;;;;;5012220;28;20112;-75
2023/02/05 08:46:08;;;;;;;11.10;5.75;;;1.60;99.90;;;;;;5019929;28;20056;-76
2023/02/05 08:48:34;;;;;;;10.73;6.07;;;1.60;99.90;;;;;;5031960;28;20746;-76
2023/02/05 08:51:00;;;;;;;9.60;5.32;;;1.30;99.90;;;;;;5031325;28;20092;-75
2023/02/05 08:53:26;;;;;;;9.18;5.30;;;1.40;99.90;;;;;;5014937;28;20045;-75
2023/02/05 08:55:59;;;;;;;11.75;5.60;;;1.40;99.90;;;;;;5010666;28;20798;-76
2023/02/05 08:58:26;;;;;;;7.88;4.72;;;1.20;99.90;;;;;;5030414;28;20075;-75
2023/02/05 09:00:52;;;;;;;7.25;4.78;;;1.40;99.90;;;;;;5024004;28;20064;-75
2023/02/05 09:03:18;;;;;;;8.40;4.50;;;1.60;99.90;;;;;;5043823;28;20045;-76
2023/02/05 09:05:44;;;;;;;7.63;4.30;;;1.70;99.90;;;;;;4979327;28;20081;-76
2023/02/05 09:08:09;;;;;;;8.65;4.97;;;1.90;99.90;;;;;;4977008;28;20076;-76
2023/02/05 09:10:35;;;;;;;8.13;4.10;;;1.80;99.90;;;;;;5020836;28;20037;-76
2023/02/05 09:13:01;;;;;;;6.85;4.03;;;2.00;99.90;;;;;;5006778;28;20064;-76
2023/02/05 09:15:27;;;;;;;8.85;4.82;;;2.10;99.90;;;;;;5017882;28;20107;-76
2023/02/05 09:17:52;;;;;;;7.18;4.13;;;2.40;99.90;;;;;;5014491;28;20156;-76
2023/02/05 09:20:18;;;;;;;10.85;3.97;;;2.50;99.90;;;;;;5023862;28;20076;-75
2023/02/05 09:22:45;;;;;;;6.45;4.07;;;2.40;99.90;;;;;;5006975;28;20037;-76
2023/02/05 09:25:11;;;;;;;6.97;4.30;;;2.60;99.90;;;;;;5017301;28;20133;-76
2023/02/05 09:27:36;;;;;;;8.68;3.97;;;2.70;99.90;;;;;;5023446;28;20466;-76
2023/02/05 09:30:02;;;;;;;11.60;4.85;;;2.70;99.90;;;;;;4991476;28;20045;-76
2023/02/05 09:32:28;;;;;;;6.75;3.90;;;2.60;99.90;;;;;;5032379;28;20132;-76
2023/02/05 09:34:54;;;;;;;8.70;4.00;;;2.70;99.90;;;;;;5023094;28;20509;-75
2023/02/05 09:37:21;;;;;;;8.98;4.45;;;2.80;99.90;;;;;;5028019;28;20104;-73
2023/02/05 09:39:47;;;;;;;10.05;4.75;;;2.80;99.90;;;;;;5034320;28;20045;-73
2023/02/05 09:42:43;;;;;;;7.35;4.45;;;2.80;99.90;;;;;;5002796;28;20049;-73
2023/02/05 09:45:15;;;;;;;12.75;5.75;;;2.80;99.90;;;;;;5033260;28;20057;-73
2023/02/05 09:47:53;;;;;;;11.32;5.75;;;2.60;99.90;;;;;;5025019;28;20459;-76
2023/02/05 09:50:28;;;;;;;9.45;5.00;;;2.80;99.90;;;;;;5009082;28;20048;-75
2023/02/05 09:53:01;;;;;;;7.30;4.60;;;3.00;99.90;;;;;;5039941;28;20057;-74
2023/02/05 09:55:32;;;;;;;8.43;5.05;;;3.00;99.90;;;;;;5029386;28;20152;-73
2023/02/05 09:58:02;;;;;;;11.40;4.63;;;3.00;99.90;;;;;;4980633;28;20588;-73
2023/02/05 10:00:43;;;;;;;7.95;4.28;;;3.00;99.90;;;;;;5023644;28;20041;-73
2023/02/05 10:03:24;;;;;;;9.10;5.32;;;3.00;99.90;;;;;;5007418;28;20053;-73
2023/02/05 10:06:23;;;;;;;7.78;4.30;;;3.20;99.90;;;;;;5009945;28;20041;-73
2023/02/05 10:08:52;;;;;;;;;;;3.30;99.90;;;;;;5042026;28;20084;-73
2023/02/05 10:11:50;;;;;;;8.27;4.95;;;3.20;99.90;;;;;;5026274;28;19975;-73
2023/02/05 10:14:26;;;;;;;8.65;4.47;;;3.40;99.90;;;;;;5024139;28;20061;-73
2023/02/05 10:17:10;;;;;;;7.75;4.90;;;3.30;99.90;;;;;;4999212;28;20232;-73
2023/02/05 10:20:02;;;;;;;8.25;4.85;;;3.50;99.90;;;;;;5032163;28;20072;-74
2023/02/05 10:22:41;;;;;;;8.35;4.93;;;3.40;99.90;;;;;;5030196;28;20049;-73
2023/02/05 10:25:41;;;;;;;12.10;5.38;;;3.50;99.90;;;;;;5025525;28;20359;-71
2023/02/05 10:28:39;;;;;;;9.52;4.88;;;3.70;99.90;;;;;;5013687;28;20041;-73
2023/02/05 10:31:34;;;;;;;7.78;4.40;;;3.80;99.90;;;;;;5033660;28;20125;-72
2023/02/05 10:34:26;;;;;;;8.35;4.65;;;3.60;99.90;;;;;;5020098;28;20049;-72
2023/02/05 10:36:52;;;;;;;7.05;4.20;;;3.60;99.90;;;;;;5021062;28;20063;-72
2023/02/05 10:39:43;;;;;;;10.85;4.43;;;3.60;99.90;;;;;;4994632;28;20363;-72
2023/02/05 10:42:33;;;;;;;8.93;4.55;;;3.30;99.90;;;;;;5014240;28;20864;-70
2023/02/05 10:45:41;;;;;;;7.28;4.53;;;3.50;99.90;;;;;;5013429;28;20130;-74
2023/02/05 10:48:44;;;;;;;7.95;5.18;;;3.80;99.90;;;;;;5008695;28;20048;-73
2023/02/05 10:51:26;;;;;;;7.60;4.10;;;3.90;99.90;;;;;;5032833;28;20359;-72
2023/02/05 10:54:11;;;;;;;7.07;4.32;;;4.10;99.90;;;;;;5007417;28;20041;-72
2023/02/05 10:56:42;;;;;;;8.88;4.35;;;4.10;99.90;;;;;;5028562;28;20132;-72
2023/02/05 10:59:15;;;;;;;9.35;4.35;;;4.40;99.90;;;;;;5025859;28;20155;-72
2023/02/05 11:01:54;;;;;;;8.82;4.72;;;4.60;99.90;;;;;;5021853;28;20053;-72
2023/02/05 11:04:46;;;;;;;8.75;4.05;;;4.60;99.90;;;;;;4996319;28;20046;-72
2023/02/05 11:07:35;;;;;;;5.30;3.72;;;4.60;99.90;;;;;;5026467;28;20053;-72
2023/02/05 11:10:37;;;;;;;7.47;3.90;;;4.50;99.90;;;;;;5008078;28;20071;-72
2023/02/05 11:13:22;;;;;;;9.52;4.38;;;4.30;99.90;;;;;;5009545;28;20970;-71
2023/02/05 11:16:04;;;;;;;7.45;4.03;;;4.20;99.90;;;;;;5024278;28;20060;-72
2023/02/05 11:18:37;;;;;;;8.00;3.95;;;4.20;99.90;;;;;;5011746;28;20124;-72
2023/02/05 11:21:04;;;;;;;7.63;4.78;;;4.50;99.90;;;;;;4972369;28;20095;-72
2023/02/05 11:23:31;;;;;;;7.97;4.50;;;4.50;99.90;;;;;;5036584;28;20482;-72
2023/02/05 11:25:59;;;;;;;8.57;4.80;;;4.60;99.90;;;;;;5010736;28;20111;-72
2023/02/05 11:28:29;;;;;;;8.32;4.45;;;4.70;99.90;;;;;;5011621;28;20455;-72
2023/02/05 11:30:55;;;;;;;8.10;4.32;;;4.70;99.90;;;;;;5039857;28;20049;-72
2023/02/05 11:33:26;;;;;;;10.73;4.75;;;4.50;99.90;;;;;;4981352;28;20049;-72
2023/02/05 11:36:02;;;;;;;8.82;4.55;;;4.70;99.90;;;;;;4996982;28;20041;-73
2023/02/05 11:38:32;;;;;;;8.55;4.45;;;4.50;99.90;;;;;;5014120;28;20114;-74
2023/02/05 11:41:06;;;;;;;9.18;4.32;;;4.70;99.90;;;;;;5018193;28;20064;-74
2023/02/05 11:43:37;;;;;;;6.60;4.00;;;4.90;99.90;;;;;;4999306;28;20077;-75
2023/02/05 11:46:05;;;;;;;6.15;3.63;;;6.20;99.90;;;;;;5014464;28;20048;-75
2023/02/05 11:48:59;;;;;;;6.95;3.80;;;7.70;99.90;;;;;;4998807;28;20776;-74
2023/02/05 11:51:45;;;;;;;7.35;4.07;;;7.80;99.90;;;;;;5011083;28;20133;-74
2023/02/05 11:54:20;;;;;;;6.70;3.97;;;7.50;99.90;;;;;;5024450;28;20065;-74
2023/02/05 11:57:19;;;;;;;7.55;3.88;;;6.80;99.90;;;;;;5042857;28;20128;-74
2023/02/05 11:59:58;;;;;;;7.85;4.05;;;6.10;99.90;;;;;;5010905;28;20040;-74
2023/02/05 12:02:27;;;;;;;9.30;5.10;;;5.50;99.90;;;;;;5010063;28;20033;-74
2023/02/05 12:05:11;;;;;;;14.38;5.03;;;4.90;99.90;;;;;;5012261;28;20451;-74
2023/02/05 12:07:58;;;;;;;12.25;6.35;;;4.50;99.90;;;;;;5026773;28;20102;-74
2023/02/05 12:10:32;;;;;;;6.93;4.13;;;4.30;99.90;;;;;;5023027;28;20041;-74
2023/02/05 12:13:36;;;;;;;8.38;4.88;;;4.40;99.90;;;;;;5025050;28;20065;-73
2023/02/05 12:16:21;;;;;;;9.52;5.38;;;4.50;99.90;;;;;;5030874;28;20124;-73
2023/02/05 12:19:10;;;;;;;8.93;5.00;;;4.60;99.90;;;;;;4998675;28;20041;-74
2023/02/05 12:21:46;;;;;;;8.32;5.28;;;4.60;99.90;;;;;;5024994;28;20091;-73
2023/02/05 12:24:46;;;;;;;9.80;5.00;;;4.70;99.90;;;;;;5024350;28;20092;-74
2023/02/05 12:27:35;;;;;;;9.32;4.50;;;4.60;99.90;;;;;;5006954;28;20088;-73
2023/02/05 12:30:26;;;;;;;7.63;4.75;;;4.70;99.90;;;;;;5036825;28;20406;-73
2023/02/05 12:33:23;;;;;;;7.88;4.70;;;4.70;99.90;;;;;;5025260;28;20048;-73
2023/02/05 12:36:17;;;;;;;9.35;5.00;;;4.50;99.90;;;;;;5028583;28;20052;-72
2023/02/05 12:39:11;;;;;;;9.63;5.28;;;4.40;99.90;;;;;;5039072;28;20042;-72
2023/02/05 12:42:00;;;;;;;10.05;5.30;;;4.20;99.90;;;;;;5022582;28;20052;-73
2023/02/05 12:44:43;;;;;;;7.53;5.38;;;4.40;99.90;;;;;;5000254;28;20099;-72
2023/02/05 12:47:22;;;;;;;8.48;5.38;;;4.40;99.90;;;;;;5053436;28;20661;-73
2023/02/05 12:49:48;;;;;;;10.60;5.40;;;4.50;99.90;;;;;;5017598;28;20080;-73
2023/02/05 12:52:46;;;;;;;8.40;5.63;;;4.50;99.90;;;;;;5023155;28;20048;-73
2023/02/05 12:55:50;;;;;;;8.95;5.22;;;4.60;99.90;;;;;;5022660;28;20049;-73
2023/02/05 12:58:19;;;;;;;8.73;4.70;;;4.70;99.90;;;;;;5029653;28;20507;-75
2023/02/05 13:01:19;;;;;;;8.70;5.03;;;4.70;99.90;;;;;;5025064;28;20417;-76
2023/02/05 13:03:53;;;;;;;8.57;5.00;;;4.90;99.90;;;;;;5018529;28;20052;-74
2023/02/05 13:06:21;;;;;;;12.25;5.22;;;5.50;99.90;;;;;;5012257;28;20127;-75
2023/02/05 13:08:55;;;;;;;8.07;4.37;;;5.60;99.90;;;;;;5026985;28;20046;-75
2023/02/05 13:11:34;;;;;;;6.82;4.47;;;6.10;99.90;;;;;;5039415;28;20459;-75
2023/02/05 13:14:19;;;;;;;9.85;4.53;;;6.50;99.90;;;;;;5012119;28;20057;-76
2023/02/05 13:16:49;;;;;;;8.07;5.13;;;8.10;99.90;;;;;;5048332;28;20601;-78
2023/02/05 13:19:23;;;;;;;9.57;5.40;;;9.70;99.90;;;;;;5009130;28;20382;-76
2023/02/05 13:30:23;;;;;;;8.35;6.32;;;11.60;84.10;;;;;;5022084;28;20041;-73
2023/02/05 13:32:50;;;;;;;10.30;5.28;;;11.50;81.30;;;;;;5008583;28;20049;-72